Time;durP1;ratioP1;P1;durP2;ratioP2;P2;SDS_P1;SDS_P2;PMS_P1;PMS_P2;Temp;Humidity;BMP_temperature;BMP_pressure;BME280_temperature;BME280_humidity;BME280_pressure;Samples;Min_cycle;Max_cycle;Signal;HPM_P1;HPM_P2
2023/01/13 00:00:08;;;;;;;0.40;0.20;;;;;;;8.92;100.00;99740.63;5980563;28;20043;-72
2023/01/13 00:03:03;;;;;;;0.80;0.35;;;;;;;8.87;100.00;99720.94;5979349;29;20027;-70
2023/01/13 00:05:58;;;;;;;0.23;0.20;;;;;;;8.96;100.00;99725.28;5981101;29;20070;-70
2023/01/13 00:08:54;;;;;;;0.30;0.20;;;;;;;8.89;100.00;99716.31;5981161;29;20117;-70
2023/01/13 00:11:49;;;;;;;0.37;0.27;;;;;;;8.91;100.00;99719.66;5980394;29;20042;-70
2023/01/13 00:14:44;;;;;;;0.50;0.37;;;;;;;8.98;100.00;99737.34;5980750;29;20039;-72
2023/01/13 00:17:40;;;;;;;0.63;0.40;;;;;;;8.90;100.00;99723.28;5980622;29;20041;-72
2023/01/13 00:20:35;;;;;;;0.30;0.27;;;;;;;8.93;100.00;99738.81;5981055;29;20290;-72
2023/01/13 00:23:32;;;;;;;0.57;0.30;;;;;;;8.81;100.00;99708.34;5980511;29;20035;-72
2023/01/13 00:26:34;;;;;;;0.63;0.30;;;;;;;8.74;100.00;99702.06;5980468;29;20479;-72
2023/01/13 00:29:29;;;;;;;1.83;0.45;;;;;;;8.81;100.00;99716.28;5980521;29;20047;-72
2023/01/13 00:32:26;;;;;;;0.43;0.20;;;;;;;8.81;100.00;99714.47;5979483;29;20402;-72
2023/01/13 00:35:21;;;;;;;0.10;0.10;;;;;;;8.89;100.00;99711.88;5980176;29;20039;-72
2023/01/13 00:38:17;;;;;;;0.20;0.20;;;;;;;8.92;100.00;99705.44;5980389;29;20038;-72
2023/01/13 00:41:15;;;;;;;0.20;0.20;;;;;;;8.91;100.00;99698.50;5980545;29;20471;-72
2023/01/13 00:44:10;;;;;;;0.30;0.20;;;;;;;8.93;100.00;99696.53;5979315;28;20078;-71
2023/01/13 00:47:05;;;;;;;0.43;0.30;;;;;;;8.93;100.00;99699.16;5980169;29;20487;-72
2023/01/13 00:50:01;;;;;;;0.20;0.20;;;;;;;8.92;100.00;99684.28;5980092;29;20042;-71
2023/01/13 00:52:59;;;;;;;0.20;0.20;;;;;;;9.05;100.00;99684.66;5979417;29;20097;-72
2023/01/13 00:56:06;;;;;;;1.13;0.20;;;;;;;9.15;100.00;99701.22;5979937;29;20366;-71
2023/01/13 00:59:02;;;;;;;0.30;0.17;;;;;;;9.10;100.00;99674.44;5979830;29;20046;-73
2023/01/13 01:01:58;;;;;;;0.38;0.38;;;;;;;9.05;100.00;99658.19;5979166;29;20031;-71
2023/01/13 01:04:53;;;;;;;0.30;0.30;;;;;;;9.09;100.00;99670.13;5979576;28;20398;-72
2023/01/13 01:07:48;;;;;;;0.67;0.37;;;;;;;9.07;100.00;99666.81;5979811;29;20423;-73
2023/01/13 01:10:44;;;;;;;1.25;0.30;;;;;;;9.01;100.00;99670.09;5979293;29;20407;-72
2023/01/13 01:13:39;;;;;;;0.40;0.40;;;;;;;9.16;100.00;99680.91;5978473;28;20118;-71
2023/01/13 01:16:34;;;;;;;0.97;0.67;;;;;;;9.01;100.00;99659.53;5979955;29;20104;-72
2023/01/13 01:19:30;;;;;;;0.47;0.40;;;;;;;9.13;100.00;99670.63;5979673;28;20325;-72
2023/01/13 01:22:25;;;;;;;0.38;0.30;;;;;;;9.01;100.00;99651.59;5978589;29;20035;-72
2023/01/13 01:25:20;;;;;;;0.20;0.20;;;;;;;9.18;100.00;99690.31;5979269;29;20054;-73
2023/01/13 01:28:18;;;;;;;1.13;0.30;;;;;;;9.22;100.00;99688.16;5979536;29;20046;-72
2023/01/13 01:31:18;;;;;;;0.60;0.40;;;;;;;9.26;100.00;99687.69;5979900;29;20031;-72
2023/01/13 01:34:13;;;;;;;0.20;0.20;;;;;;;9.21;100.00;99691.81;5979285;29;20074;-71
2023/01/13 01:37:08;;;;;;;0.50;0.30;;;;;;;9.10;100.00;99670.97;5979283;29;20039;-71
2023/01/13 01:40:04;;;;;;;0.47;0.20;;;;;;;9.08;100.00;99688.81;5979222;29;20035;-73
2023/01/13 01:46:13;;;;;;;0.47;0.30;;;;;;;9.01;100.00;99693.06;5979196;29;20043;-72
2023/01/13 01:49:21;;;;;;;0.83;0.30;;;;;;;8.89;100.00;99681.94;5979088;29;20047;-71
2023/01/13 01:52:24;;;;;;;1.40;0.30;;;;;;;8.97;100.00;99695.19;5978651;29;20110;-71
2023/01/13 01:55:21;;;;;;;0.32;0.20;;;;;;;8.85;100.00;99678.00;5979156;29;20605;-72
2023/01/13 01:58:20;;;;;;;0.30;0.30;;;;;;;8.85;100.00;99678.00;5979142;29;20042;-72
2023/01/13 02:01:15;;;;;;;0.82;0.40;;;;;;;8.95;100.00;99698.00;5961874;29;20035;-71
2023/01/13 02:04:22;;;;;;;0.32;0.30;;;;;;;8.91;100.00;99678.16;5977968;29;20035;-72
2023/01/13 02:07:20;;;;;;;0.40;0.30;;;;;;;8.88;100.00;99677.69;5961940;29;20541;-70
2023/01/13 02:10:18;;;;;;;0.47;0.20;;;;;;;8.97;100.00;99692.56;5961713;29;20031;-70
2023/01/13 02:13:13;;;;;;;1.38;0.47;;;;;;;8.97;100.00;99681.97;5978043;29;20046;-72
2023/01/13 02:16:15;;;;;;;2.23;0.40;;;;;;;9.07;100.00;99671.28;5961745;29;20035;-71
2023/01/13 02:19:23;;;;;;;0.70;0.30;;;;;;;9.11;100.00;99668.13;5961724;29;20031;-72
2023/01/13 02:22:45;;;;;;;0.75;0.30;;;;;;;9.12;100.00;99669.81;5961224;29;20039;-72
2023/01/13 02:25:59;;;;;;;0.82;0.40;;;;;;;8.95;100.00;99666.28;5965096;29;20038;-72
2023/01/13 02:33:13;;;;;;;1.30;0.30;;;;;;;9.11;97.97;99678.72;5982634;29;20444;-72
2023/01/13 02:36:39;;;;;;;1.40;0.30;;;;;;;9.07;96.27;99666.81;5983372;29;20027;-72
2023/01/13 02:39:40;;;;;;;0.65;0.38;;;;;;;9.03;95.69;99675.22;5942903;29;20098;-72
2023/01/13 02:46:02;;;;;;;0.50;0.20;;;;;;;8.78;95.74;99675.16;5967611;29;20043;-72
2023/01/13 02:49:03;;;;;;;0.82;0.60;;;;;;;8.87;95.52;99682.13;5982913;29;20063;-72
2023/01/13 02:52:07;;;;;;;0.35;0.22;;;;;;;8.95;94.27;99694.53;5965120;29;20035;-72
2023/01/13 02:55:06;;;;;;;1.23;0.25;;;;;;;9.00;93.59;99694.88;5965842;29;20426;-71
2023/01/13 02:58:03;;;;;;;0.35;0.22;;;;;;;9.02;92.83;99703.50;5965394;29;20055;-72
2023/01/13 03:00:59;;;;;;;2.08;0.60;;;;;;;8.89;93.82;99676.66;5965393;29;20038;-72
2023/01/13 03:03:54;;;;;;;2.33;0.50;;;;;;;8.94;93.18;99677.84;5981726;29;20039;-71
2023/01/13 03:07:00;;;;;;;1.90;0.60;;;;;;;8.96;93.13;99689.09;5982272;29;20109;-72
2023/01/13 03:10:07;;;;;;;1.65;0.40;;;;;;;8.96;92.91;99698.84;5957041;29;20501;-72
2023/01/13 03:13:26;;;;;;;1.42;0.60;;;;;;;8.87;92.79;99691.88;5980799;29;20051;-71
2023/01/13 03:16:30;;;;;;;1.80;0.50;;;;;;;8.97;92.30;99729.56;5965308;29;20575;-71
2023/01/13 03:19:42;;;;;;;2.45;0.30;;;;;;;8.88;91.22;99726.09;5982007;29;20038;-71
2023/01/13 03:22:52;;;;;;;3.30;0.70;;;;;;;8.80;91.42;99738.44;5981434;29;20062;-70
2023/01/13 03:26:09;;;;;;;0.57;0.40;;;;;;;8.88;90.87;99741.13;5964762;29;20043;-71
2023/01/13 03:29:24;;;;;;;2.42;0.80;;;;;;;8.92;89.85;99734.50;5964476;29;20416;-72
2023/01/13 03:32:26;;;;;;;5.82;0.80;;;;;;;8.90;89.32;99713.53;5981340;29;20414;-72
2023/01/13 03:35:30;;;;;;;4.78;0.93;;;;;;;8.84;89.40;99708.03;5964033;29;20394;-73
2023/01/13 03:38:32;;;;;;;2.75;0.90;;;;;;;8.83;88.67;99717.78;5982011;29;20203;-72
2023/01/13 03:41:45;;;;;;;6.97;1.20;;;;;;;8.71;89.05;99700.56;5963298;29;20035;-71
2023/01/13 03:44:45;;;;;;;6.40;1.00;;;;;;;8.72;89.98;99725.19;5979765;28;20031;-72
2023/01/13 03:47:51;;;;;;;6.78;1.33;;;;;;;8.71;90.04;99736.75;5964328;29;20035;-71
2023/01/13 03:50:49;;;;;;;5.55;0.98;;;;;;;8.68;90.32;99731.78;5981032;29;20055;-73
2023/01/13 03:53:48;;;;;;;1.70;0.65;;;;;;;8.62;91.15;99729.75;5963547;29;20474;-72
2023/01/13 03:56:51;;;;;;;4.25;0.93;;;;;;;8.63;91.53;99729.59;5963891;29;20547;-73
2023/01/13 03:59:49;;;;;;;7.13;1.23;;;;;;;8.60;91.73;99727.28;5964033;29;20032;-71
2023/01/13 04:02:55;;;;;;;5.47;0.80;;;;;;;8.53;92.38;99714.88;5979274;29;20502;-72
2023/01/13 04:05:55;;;;;;;3.40;0.77;;;;;;;8.46;93.31;99724.38;5964005;29;20027;-72
2023/01/13 04:08:54;;;;;;;7.43;0.90;;;;;;;8.24;94.15;99710.69;5963475;29;20053;-71
2023/01/13 04:11:58;;;;;;;3.83;1.40;;;;;;;8.15;95.00;99724.00;5963466;29;20045;-72
2023/01/13 04:14:54;;;;;;;1.98;0.90;;;;;;;8.05;95.90;99726.75;5961345;29;20420;-71
2023/01/13 04:17:50;;;;;;;3.85;1.00;;;;;;;7.97;97.13;99702.91;5980738;29;20403;-73
2023/01/13 04:20:47;;;;;;;5.20;1.27;;;;;;;8.16;96.95;99736.22;5980834;29;20059;-72
2023/01/13 04:23:42;;;;;;;5.45;1.10;;;;;;;8.06;96.90;99706.44;5979678;29;20475;-72
2023/01/13 04:26:37;;;;;;;2.70;1.17;;;;;;;7.99;97.60;99695.66;5980784;29;20050;-72
2023/01/13 04:29:33;;;;;;;3.57;1.23;;;;;;;7.94;97.72;99692.66;5980125;29;20089;-73
2023/01/13 04:32:28;;;;;;;3.67;0.77;;;;;;;7.84;98.46;99697.22;5979869;29;20503;-72
2023/01/13 04:35:24;;;;;;;4.87;1.10;;;;;;;7.73;99.28;99700.09;5980450;29;20505;-71
2023/01/13 04:38:20;;;;;;;2.53;1.08;;;;;;;7.84;99.91;99718.34;5979939;29;20450;-71
2023/01/13 04:41:15;;;;;;;3.72;1.30;;;;;;;7.89;99.24;99716.06;5980318;29;20475;-72
2023/01/13 04:44:10;;;;;;;3.90;1.17;;;;;;;7.88;99.34;99714.38;5979401;28;20115;-72
2023/01/13 04:47:06;;;;;;;4.47;1.13;;;;;;;7.90;99.15;99723.00;5979604;28;20031;-70
2023/01/13 04:50:01;;;;;;;3.67;1.00;;;;;;;7.82;98.91;99711.56;5980330;29;20113;-72
2023/01/13 04:52:56;;;;;;;4.32;1.20;;;;;;;7.82;99.34;99714.19;5979305;29;20042;-73
2023/01/13 04:55:52;;;;;;;4.63;1.00;;;;;;;7.77;99.51;99717.31;5980155;29;20447;-73
2023/01/13 04:58:47;;;;;;;5.33;1.43;;;;;;;7.63;99.62;99715.19;5979397;29;20279;-71
2023/01/13 05:01:42;;;;;;;4.33;1.07;;;;;;;7.51;100.00;99726.94;5980297;29;20058;-72
2023/01/13 05:04:38;;;;;;;3.03;1.20;;;;;;;7.32;100.00;99721.81;5979136;29;20106;-71
2023/01/13 05:07:33;;;;;;;3.03;1.30;;;;;;;7.21;100.00;99736.03;5979556;29;20043;-71
2023/01/13 05:10:29;;;;;;;4.85;1.05;;;;;;;7.25;100.00;99737.41;5979867;29;20555;-72
2023/01/13 05:19:52;;;;;;;10.55;1.60;;;;;;;7.34;99.87;99730.44;5979035;29;20035;-73
2023/01/13 05:26:01;;;;;;;4.90;1.23;;;;;;;7.29;99.98;99724.75;5978484;29;20063;-73
2023/01/13 05:28:57;;;;;;;7.68;1.27;;;;;;;7.47;98.85;99730.88;5962041;29;20043;-71
2023/01/13 05:31:52;;;;;;;5.03;1.30;;;;;;;7.48;97.09;99717.53;5977775;29;20399;-70
2023/01/13 05:34:48;;;;;;;7.60;1.90;;;;;;;7.53;95.96;99733.72;5978792;29;20035;-72
2023/01/13 05:37:44;;;;;;;9.98;1.92;;;;;;;7.43;96.04;99729.50;5979257;29;20078;-71
2023/01/13 05:43:58;;;;;;;6.95;1.60;;;;;;;7.46;94.91;99730.03;5967408;28;20079;-72
2023/01/13 05:46:53;;;;;;;13.70;1.83;;;;;;;7.61;93.49;99735.63;5978834;29;20088;-71
2023/01/13 05:49:49;;;;;;;7.43;1.70;;;;;;;7.56;92.46;99722.03;5978986;29;20042;-70
2023/01/13 05:52:44;;;;;;;4.93;1.90;;;;;;;7.63;92.08;99725.75;5978108;29;20039;-72
2023/01/13 05:55:40;;;;;;;9.37;1.73;;;;;;;7.59;91.70;99719.09;5978449;29;20438;-72
2023/01/13 05:58:36;;;;;;;10.77;2.10;;;;;;;7.69;90.83;99730.44;5980494;28;20035;-70
2023/01/13 06:01:31;;;;;;;6.70;1.70;;;;;;;7.79;90.77;99736.44;5983746;29;20497;-73
2023/01/13 06:04:26;;;;;;;10.82;1.67;;;;;;;7.79;90.04;99724.09;5983437;29;20372;-72
2023/01/13 06:07:22;;;;;;;10.40;2.20;;;;;;;7.83;89.58;99721.94;5983725;29;20055;-70
2023/01/13 06:10:17;;;;;;;13.37;1.77;;;;;;;7.71;89.31;99712.63;5983565;29;20035;-73
2023/01/13 06:13:12;;;;;;;5.37;1.87;;;;;;;7.56;88.96;99714.97;5983080;29;20032;-71
2023/01/13 06:16:08;;;;;;;9.43;1.80;;;;;;;7.59;87.95;99725.22;5983499;29;20081;-72
2023/01/13 06:19:07;;;;;;;9.32;2.08;;;;;;;7.59;87.21;99724.38;5983547;29;20126;-72
2023/01/13 06:22:17;;;;;;;6.75;1.83;;;;;;;7.52;87.49;99733.88;5982820;29;20399;-71
2023/01/13 06:25:23;;;;;;;11.68;1.90;;;;;;;7.50;87.50;99733.22;5983665;29;20031;-73
2023/01/13 06:28:20;;;;;;;5.60;1.40;;;;;;;7.50;87.45;99731.38;5983462;29;20372;-73
2023/01/13 06:31:15;;;;;;;9.75;1.80;;;;;;;7.63;86.42;99741.59;5983109;29;20126;-72
2023/01/13 06:34:12;;;;;;;5.57;2.27;;;;;;;7.64;86.67;99738.78;5965540;29;20061;-71
2023/01/13 06:37:07;;;;;;;8.40;1.70;;;;;;;7.73;86.97;99747.59;5983027;29;20271;-73
2023/01/13 06:40:05;;;;;;;7.17;1.63;;;;;;;7.65;86.62;99727.25;5982757;29;20043;-71
2023/01/13 06:43:16;;;;;;;10.13;1.67;;;;;;;7.77;86.25;99739.22;5964857;29;20126;-71
2023/01/13 06:46:11;;;;;;;8.88;1.70;;;;;;;7.73;86.90;99740.50;5983073;28;20031;-71
2023/01/13 06:49:06;;;;;;;5.33;1.70;;;;;;;7.79;86.77;99749.63;5982635;29;20070;-70
2023/01/13 06:52:02;;;;;;;6.27;1.60;;;;;;;7.64;86.33;99722.13;5982252;29;20037;-70
2023/01/13 06:54:57;;;;;;;6.70;1.70;;;;;;;7.75;86.17;99730.63;5982881;29;20031;-72
2023/01/13 06:57:55;;;;;;;6.90;1.77;;;;;;;7.82;85.49;99736.13;5982353;29;20098;-72
2023/01/13 07:00:50;;;;;;;8.60;1.48;;;;;;;7.85;85.31;99735.00;5982696;29;20031;-72
2023/01/13 07:03:45;;;;;;;4.27;1.00;;;;;;;7.90;85.85;99748.56;5981889;29;20042;-70
2023/01/13 07:06:40;;;;;;;7.90;1.17;;;;;;;7.90;85.57;99744.13;5982527;29;20302;-70
2023/01/13 07:09:36;;;;;;;5.93;1.10;;;;;;;7.82;85.26;99736.13;5981827;28;20050;-70
2023/01/13 07:15:16;;;;;;;2.37;0.80;;;;;;;7.91;84.75;99740.47;5981696;29;20039;-70
2023/01/13 07:15:57;;;;;;;4.88;0.90;;;;;;;7.79;85.16;99733.81;5982361;29;20275;-71
2023/01/13 07:18:53;;;;;;;7.75;1.08;;;;;;;7.78;83.95;99729.50;5981896;29;20042;-73
2023/01/13 07:21:51;;;;;;;7.95;1.10;;;;;;;7.82;84.71;99748.50;5982540;29;20058;-73
2023/01/13 07:24:46;;;;;;;5.68;1.33;;;;;;;7.77;84.84;99743.69;5982011;29;20057;-70
2023/01/13 07:27:42;;;;;;;3.97;1.00;;;;;;;7.69;84.28;99738.34;5981964;29;20039;-71
2023/01/13 07:30:37;;;;;;;8.23;1.20;;;;;;;7.70;84.25;99735.53;5982001;29;20049;-72
2023/01/13 07:33:32;;;;;;;10.68;1.42;;;;;;;7.59;83.95;99740.22;5981157;29;20035;-71
2023/01/13 07:36:28;;;;;;;7.63;1.33;;;;;;;7.58;84.04;99733.28;5982095;29;20035;-72
2023/01/13 07:39:23;;;;;;;11.07;1.27;;;;;;;7.58;83.24;99738.56;5981478;29;20550;-73
2023/01/13 07:45:32;;;;;;;6.32;1.17;;;;;;;7.62;83.18;99739.91;5981609;28;20538;-70
2023/01/13 07:48:28;;;;;;;6.00;1.10;;;;;;;7.63;82.56;99736.31;5981659;29;20031;-72
2023/01/13 07:51:23;;;;;;;3.95;0.95;;;;;;;7.62;82.81;99739.91;5981614;29;20035;-70
2023/01/13 07:54:19;;;;;;;8.10;1.60;;;;;;;7.43;83.89;99740.06;5980690;29;20406;-70
2023/01/13 07:57:14;;;;;;;5.07;1.55;;;;;;;7.42;84.33;99751.59;5981399;29;20054;-72
2023/01/13 08:00:10;;;;;;;8.20;1.17;;;;;;;7.45;83.58;99754.75;5980653;29;20078;-71
2023/01/13 08:03:05;;;;;;;7.70;1.58;;;;;;;7.50;83.31;99752.47;5980787;29;20031;-73
2023/01/13 08:06:01;;;;;;;3.97;1.10;;;;;;;7.55;82.81;99741.50;5981235;29;20551;-72
2023/01/13 08:08:57;;;;;;;7.17;1.70;;;;;;;7.62;82.73;99751.31;5980819;29;20498;-72
2023/01/13 08:13:16;;;;;;;7.75;1.83;;;;;;;7.76;82.39;99752.56;5980673;29;20278;-72
2023/01/13 08:15:09;;;;;;;8.32;1.15;;;;;;;7.87;80.95;99757.63;5980809;29;20043;-69
2023/01/13 08:18:04;;;;;;;5.22;0.90;;;;;;;8.04;79.68;99762.06;5980837;29;20467;-72
2023/01/13 08:21:02;;;;;;;8.60;1.37;;;;;;;8.09;79.26;99772.16;5980509;28;20043;-71
2023/01/13 08:23:57;;;;;;;9.15;1.17;;;;;;;8.13;79.42;99779.59;5978880;29;20040;-71
2023/01/13 08:26:52;;;;;;;3.20;0.93;;;;;;;8.07;79.79;99767.00;5980788;29;20097;-70
2023/01/13 08:29:48;;;;;;;14.37;1.63;;;;;;;8.05;78.99;99761.06;5979745;29;20066;-72
2023/01/13 08:32:44;;;;;;;4.77;1.13;;;;;;;7.99;79.74;99759.03;5975535;28;20466;-72
2023/01/13 08:35:40;;;;;;;4.80;1.00;;;;;;;8.00;80.05;99768.63;5977453;29;20293;-71
2023/01/13 08:38:36;;;;;;;11.88;1.52;;;;;;;8.06;79.50;99780.38;5977400;29;20031;-72
2023/01/13 08:44:45;;;;;;;7.60;1.75;;;;;;;8.08;79.42;99783.69;5977298;28;20031;-69
2023/01/13 08:47:40;;;;;;;6.80;1.20;;;;;;;8.20;79.67;99807.06;5977264;29;20039;-72
2023/01/13 08:50:36;;;;;;;8.80;1.20;;;;;;;8.17;80.06;99798.63;5970786;29;20035;-71
2023/01/13 08:53:31;;;;;;;5.03;1.40;;;;;;;8.21;79.95;99813.16;5976636;28;20034;-72
2023/01/13 08:56:28;;;;;;;9.47;1.20;;;;;;;8.16;80.06;99800.44;5976644;28;20109;-72
2023/01/13 08:59:24;;;;;;;7.35;1.50;;;;;;;8.21;80.41;99800.78;5977159;29;20035;-71
2023/01/13 09:02:21;;;;;;;7.37;1.07;;;;;;;8.19;80.38;99791.38;5976457;29;20475;-71
2023/01/13 09:05:16;;;;;;;7.72;1.98;;;;;;;8.19;79.73;99786.91;5976852;29;20038;-71
2023/01/13 09:08:12;;;;;;;3.60;1.40;;;;;;;8.25;80.58;99785.47;5977791;29;20035;-71
2023/01/13 09:14:27;;;;;;;9.00;1.60;;;;;;;8.62;77.74;99795.81;5964668;29;20035;-73
2023/01/13 09:17:22;;;;;;;5.30;0.95;;;;;;;8.65;77.98;99798.97;5979455;29;20384;-70
2023/01/13 09:20:18;;;;;;;8.47;2.33;;;;;;;8.56;76.70;99789.34;5979518;29;20086;-70
2023/01/13 09:23:13;;;;;;;2.93;1.00;;;;;;;8.51;77.20;99788.16;5979072;29;20761;-73
2023/01/13 09:26:08;;;;;;;5.83;1.50;;;;;;;8.55;75.82;99800.91;5979401;29;20039;-70
2023/01/13 09:29:04;;;;;;;7.97;1.70;;;;;;;8.51;73.28;99807.47;5979376;29;20086;-72
2023/01/13 09:31:59;;;;;;;4.60;1.50;;;;;;;8.46;73.83;99798.34;5978812;29;20111;-71
2023/01/13 09:35:00;;;;;;;7.07;1.20;;;;;;;8.35;73.59;99807.38;5979350;29;20042;-70
2023/01/13 09:37:56;;;;;;;8.05;1.48;;;;;;;8.24;73.95;99813.69;5978879;29;20046;-72
2023/01/13 09:40:51;;;;;;;5.87;1.40;;;;;;;8.19;74.14;99821.25;5979493;29;20459;-71
2023/01/13 09:43:54;;;;;;;9.00;2.95;;;;;;;8.40;73.02;99822.78;5978652;28;20089;-72
2023/01/13 09:46:52;;;;;;;7.63;1.48;;;;;;;8.55;71.67;99802.72;5979079;29;20031;-71
2023/01/13 09:49:47;;;;;;;6.32;1.13;;;;;;;8.80;70.70;99818.56;5979226;29;20544;-71
2023/01/13 09:52:43;;;;;;;5.17;1.10;;;;;;;8.62;71.73;99796.66;5978470;29;20705;-71
2023/01/13 09:55:38;;;;;;;7.97;1.30;;;;;;;8.56;72.13;99810.47;5979400;29;20271;-70
2023/01/13 09:58:34;;;;;;;8.27;1.40;;;;;;;8.56;72.01;99804.38;5979227;29;20141;-72
2023/01/13 10:01:42;;;;;;;5.80;1.40;;;;;;;8.65;71.37;99824.56;5979014;29;20035;-72
2023/01/13 10:04:38;;;;;;;6.82;1.30;;;;;;;8.62;71.30;99809.03;5978806;29;20035;-72
2023/01/13 10:07:34;;;;;;;6.77;1.50;;;;;;;8.64;71.87;99797.31;5978851;29;20039;-70
2023/01/13 10:10:38;;;;;;;12.45;1.40;;;;;;;8.77;71.79;99802.19;5961976;29;20042;-72
2023/01/13 10:13:34;;;;;;;8.55;1.98;;;;;;;8.67;72.15;99804.94;5961138;29;20035;-70
2023/01/13 10:16:58;;;;;;;10.07;1.88;;;;;;;8.52;71.66;99787.16;5978698;29;20129;-71
2023/01/13 10:20:11;;;;;;;4.60;1.30;;;;;;;8.55;72.30;99800.91;5978879;29;20399;-72
2023/01/13 10:23:24;;;;;;;9.15;1.52;;;;;;;8.51;71.45;99793.44;5961436;29;20027;-69
2023/01/13 10:26:57;;;;;;;6.97;1.52;;;;;;;8.56;71.49;99807.03;5978800;29;20615;-72
2023/01/13 10:29:52;;;;;;;4.63;1.50;;;;;;;8.52;71.42;99829.44;5974314;29;20379;-72
2023/01/13 10:32:58;;;;;;;7.07;1.97;;;;;;;8.48;71.63;99806.97;5978054;29;20091;-72
2023/01/13 10:36:15;;;;;;;9.80;2.35;;;;;;;8.52;72.06;99803.84;5978556;29;20398;-71
2023/01/13 10:39:16;;;;;;;6.28;1.35;;;;;;;8.49;71.44;99806.81;5978543;29;20119;-71
2023/01/13 10:42:16;;;;;;;7.22;1.88;;;;;;;8.51;72.41;99806.63;5978159;29;20113;-71
2023/01/13 10:45:23;;;;;;;8.25;1.70;;;;;;;8.44;72.15;99789.75;5979093;28;20082;-71
2023/01/13 10:48:18;;;;;;;6.10;1.48;;;;;;;8.53;71.94;99807.34;5975023;29;20043;-70
2023/01/13 10:51:23;;;;;;;13.27;2.20;;;;;;;8.58;72.51;99819.09;5980785;29;20493;-71
2023/01/13 10:54:23;;;;;;;6.43;1.42;;;;;;;8.58;72.04;99810.34;5982359;29;20113;-71
2023/01/13 10:57:21;;;;;;;6.45;1.55;;;;;;;8.57;72.08;99806.03;5982474;29;20050;-71
2023/01/13 11:00:32;;;;;;;6.05;1.55;;;;;;;8.59;71.06;99798.78;5982843;29;20090;-72
2023/01/13 11:03:35;;;;;;;10.45;1.48;;;;;;;8.63;71.07;99819.47;5981911;29;20031;-71
2023/01/13 11:06:32;;;;;;;10.10;1.35;;;;;;;8.54;70.73;99806.34;5982673;28;20031;-71
2023/01/13 11:09:30;;;;;;;4.75;1.30;;;;;;;8.55;70.88;99813.28;5970225;29;20039;-71
2023/01/13 11:12:33;;;;;;;7.68;2.35;;;;;;;8.49;70.77;99804.16;5981653;29;20035;-72
2023/01/13 11:15:39;;;;;;;7.32;1.85;;;;;;;8.37;72.02;99811.50;5982159;29;20090;-70
2023/01/13 11:18:50;;;;;;;5.03;1.38;;;;;;;8.41;72.42;99835.81;5981987;28;20122;-72
2023/01/13 11:21:52;;;;;;;6.95;1.50;;;;;;;8.20;74.76;99835.28;5982073;29;20035;-72
2023/01/13 11:24:53;;;;;;;7.68;1.83;;;;;;;7.88;77.03;99825.25;5982107;29;20118;-70
2023/01/13 11:27:59;;;;;;;4.22;1.50;;;;;;;7.90;77.01;99844.44;5982111;29;20042;-70
2023/01/13 11:31:00;;;;;;;6.10;1.45;;;;;;;7.93;75.11;99830.94;5981994;29;20137;-70
2023/01/13 11:34:31;;;;;;;8.10;1.35;;;;;;;8.12;73.57;99846.63;5970419;29;20468;-72
2023/01/13 11:37:29;;;;;;;6.13;2.13;;;;;;;8.20;73.25;99846.69;5964250;29;20039;-70
2023/01/13 11:40:31;;;;;;;7.07;1.63;;;;;;;8.25;73.48;99860.25;5981949;29;20582;-70
2023/01/13 11:43:32;;;;;;;7.20;1.63;;;;;;;8.14;73.08;99833.25;5980985;29;20106;-71
2023/01/13 11:46:28;;;;;;;11.90;1.45;;;;;;;8.25;73.19;99852.34;5964722;29;20035;-72
2023/01/13 11:49:26;;;;;;;5.57;0.98;;;;;;;8.24;73.25;99853.31;5981383;29;20039;-72
2023/01/13 11:52:54;;;;;;;8.10;1.38;;;;;;;8.29;71.80;99835.22;5979055;29;20395;-72
2023/01/13 11:56:23;;;;;;;6.28;1.52;;;;;;;8.43;71.88;99846.22;5964215;28;20028;-72
2023/01/13 11:59:50;;;;;;;7.40;1.70;;;;;;;8.37;72.33;99831.81;5981219;29;20053;-70
2023/01/13 12:02:59;;;;;;;5.00;1.55;;;;;;;8.48;71.29;99839.47;5980865;29;20058;-70
2023/01/13 12:06:02;;;;;;;5.68;1.17;;;;;;;8.56;71.51;99844.03;5964556;29;20067;-70
2023/01/13 12:09:08;;;;;;;6.90;1.35;;;;;;;8.59;70.78;99843.72;5963924;29;20151;-70
2023/01/13 12:12:49;;;;;;;7.72;1.58;;;;;;;8.59;71.39;99835.78;5980316;29;20133;-70
2023/01/13 12:15:53;;;;;;;7.93;1.20;;;;;;;8.65;70.27;99824.56;5970797;29;20072;-73
2023/01/13 12:19:27;;;;;;;8.90;1.20;;;;;;;8.74;70.08;99835.06;5980540;29;20038;-71
2023/01/13 12:22:27;;;;;;;7.10;2.05;;;;;;;8.66;70.12;99821.78;5957922;29;20039;-70
2023/01/13 12:25:30;;;;;;;9.98;1.73;;;;;;;8.73;69.85;99832.56;5980785;29;20035;-71
2023/01/13 12:28:40;;;;;;;6.72;1.80;;;;;;;8.76;70.43;99834.88;5980545;29;20039;-71
2023/01/13 12:31:37;;;;;;;5.85;1.45;;;;;;;8.66;70.50;99826.25;5979872;29;20043;-70
2023/01/13 12:34:44;;;;;;;7.32;1.42;;;;;;;8.72;70.29;99830.91;5979432;29;20030;-70
2023/01/13 12:38:10;;;;;;;9.48;1.92;;;;;;;8.70;69.89;99848.72;5962444;29;20037;-70
2023/01/13 12:41:23;;;;;;;8.30;1.55;;;;;;;8.67;70.23;99834.00;5962762;29;20042;-72
2023/01/13 12:44:19;;;;;;;9.43;1.58;;;;;;;8.61;70.68;99802.94;5979762;28;20082;-72
2023/01/13 12:47:32;;;;;;;6.90;1.48;;;;;;;8.67;70.23;99818.16;5980303;29;20030;-71
2023/01/13 12:50:28;;;;;;;;;;;;;;;8.65;69.59;99820.13;5980895;29;20042;-71
2023/01/13 12:53:34;;;;;;;6.70;1.23;;;;;;;8.63;70.62;99821.25;5979817;29;19911;-71
2023/01/13 12:56:36;;;;;;;10.38;1.70;;;;;;;8.64;70.14;99833.50;5980084;29;20047;-71
2023/01/13 12:59:33;;;;;;;8.77;1.58;;;;;;;8.44;70.94;99797.69;5980032;29;20039;-73
2023/01/13 13:02:30;;;;;;;7.65;2.08;;;;;;;8.44;74.59;99832.88;5966371;29;20035;-72
2023/01/13 13:05:37;;;;;;;10.38;1.95;;;;;;;8.17;76.33;99835.59;5979490;29;20391;-72
2023/01/13 13:09:01;;;;;;;7.75;2.00;;;;;;;8.13;75.41;99837.69;5978923;28;20042;-71
2023/01/13 13:14:52;;;;;;;9.03;2.13;;;;;;;8.24;75.42;99823.41;5979761;29;20063;-71
2023/01/13 13:17:59;;;;;;;5.97;1.83;;;;;;;8.34;74.71;99838.22;5979528;29;20074;-71
2023/01/13 13:20:56;;;;;;;;;;;;;;;8.34;74.62;99824.22;5980081;29;20031;-71
2023/01/13 13:23:54;;;;;;;5.88;1.50;;;;;;;8.29;75.81;99822.00;5962001;29;19914;-71
2023/01/13 13:26:49;;;;;;;4.97;1.35;;;;;;;8.12;75.50;99809.66;5979682;29;20039;-71
2023/01/13 13:29:58;;;;;;;8.88;2.05;;;;;;;8.18;75.95;99822.22;5979125;29;20522;-71
2023/01/13 13:33:31;;;;;;;7.50;1.73;;;;;;;8.15;76.22;99827.81;5961730;29;20039;-72
2023/01/13 13:36:43;;;;;;;7.00;1.38;;;;;;;8.17;75.15;99831.13;5979445;29;20062;-70
2023/01/13 13:49:45;;;;;;;6.28;1.55;;;;;;;7.91;79.73;99846.06;5979485;29;20043;-71
2023/01/13 13:52:50;;;;;;;13.02;2.15;;;;;;;7.86;79.95;99842.22;5978417;29;20475;-71
2023/01/13 13:55:54;;;;;;;7.63;1.90;;;;;;;7.73;81.20;99858.44;5979369;29;20078;-71
2023/01/13 13:58:51;;;;;;;5.90;2.90;;;;;;;7.83;82.19;99877.66;5978816;29;20151;-71
2023/01/13 14:01:52;;;;;;;6.85;1.60;;;;;;;7.59;85.00;99885.31;5978964;29;20031;-71
2023/01/13 14:04:47;;;;;;;9.20;1.60;;;;;;;7.23;88.15;99896.75;5979178;29;20031;-70
2023/01/13 14:07:44;;;;;;;7.70;2.27;;;;;;;6.72;92.48;99876.91;5978709;29;20027;-69
2023/01/13 14:10:42;;;;;;;6.82;1.85;;;;;;;6.69;94.80;99902.69;5979162;29;20050;-70
2023/01/13 14:13:37;;;;;;;13.20;1.88;;;;;;;6.51;96.78;99897.31;5961235;29;20600;-70
2023/01/13 14:16:33;;;;;;;9.90;2.50;;;;;;;6.48;98.38;99902.88;5978905;29;20104;-71
2023/01/13 14:19:31;;;;;;;13.35;2.33;;;;;;;6.56;98.54;99918.81;5978520;28;20062;-71
2023/01/13 14:22:27;;;;;;;12.23;2.30;;;;;;;6.42;98.83;99904.25;5965854;29;20030;-70
2023/01/13 14:25:26;;;;;;;6.65;1.90;;;;;;;6.52;98.74;99933.25;5983403;29;20039;-70
2023/01/13 14:28:31;;;;;;;10.85;3.10;;;;;;;6.54;99.09;99926.03;5983156;29;20036;-70
2023/01/13 14:31:26;;;;;;;11.02;2.65;;;;;;;6.57;99.47;99923.09;5983431;29;20043;-71
2023/01/13 14:34:23;;;;;;;15.52;2.28;;;;;;;6.31;100.00;99901.75;5982517;29;20410;-69
2023/01/13 14:37:31;;;;;;;8.43;2.05;;;;;;;6.52;100.00;99918.25;5966134;29;20035;-70
2023/01/13 14:40:34;;;;;;;7.97;2.05;;;;;;;6.60;100.00;99920.19;5983018;29;20405;-69
2023/01/13 14:43:30;;;;;;;10.60;1.65;;;;;;;6.58;98.83;99911.59;5965445;29;20498;-71
2023/01/13 14:46:39;;;;;;;9.77;1.73;;;;;;;6.65;98.68;99917.97;5982919;28;20037;-72
2023/01/13 14:50:04;;;;;;;9.20;2.08;;;;;;;6.64;98.32;99918.09;5982775;29;20050;-70
2023/01/13 14:52:59;;;;;;;7.65;1.77;;;;;;;6.83;97.40;99949.69;5981231;29;20199;-71
2023/01/13 14:55:55;;;;;;;7.80;2.47;;;;;;;6.84;96.58;99939.03;5965772;29;20612;-72
2023/01/13 14:58:50;;;;;;;8.37;2.00;;;;;;;6.91;96.22;99953.28;5982476;29;20469;-71
2023/01/13 15:01:46;;;;;;;10.97;2.27;;;;;;;6.97;95.81;99959.78;5982456;29;20279;-71